Radnor, Ohio
Current Conditions -  °F | °C
As of 10:59 AM on Thursday 27 Nov 2014 (Local Time) from KDLZ Reporting Station
Light Snow Light Snow  
Wind Chill: 23°   Ceiling: 1200
Heat Index: 30°   Visibility: 4mi
Dew Point: 25°   Wind: 7mph
Humidity: 80%   Direction: 320°NW
Pressure: 30.2"   Gusts: NA
Location:  40.38°N, 83.15°W
Report Text: KDLZ 271559Z AUTO 32006KT 4SM -SN BKN012 BKN019 OVC025 M01/M04 A3020 RMK AO2
Loading
Personal Weather Stations






























Interactive Weather Map New forecast layout! Learn more

10-Day Weather Forecast

Advertisements
Track Severe Weather on mobile